Time;durP1;ratioP1;P1;durP2;ratioP2;P2;SDS_P1;SDS_P2;PMS_P1;PMS_P2;Temp;Humidity;BMP_temperature;BMP_pressure;BME280_temperature;BME280_humidity;BME280_pressure;Samples;Min_cycle;Max_cycle;Signal;HPM_P1;HPM_P2
2023/07/12 00:01:01;;;;;;;11.27;8.10;;;21.80;99.90;;;;;;5035445;28;20033;-67
2023/07/12 00:03:27;;;;;;;11.15;8.40;;;21.70;99.90;;;;;;5053889;28;20032;-67
2023/07/12 00:05:53;;;;;;;14.23;8.35;;;21.80;99.90;;;;;;5035827;28;20546;-67
2023/07/12 00:08:37;;;;;;;13.48;8.20;;;21.80;99.90;;;;;;5053718;28;20024;-67
2023/07/12 00:11:02;;;;;;;10.45;7.80;;;21.80;99.90;;;;;;5035861;28;20025;-67
2023/07/12 00:13:28;;;;;;;9.43;7.78;;;21.70;99.90;;;;;;5035885;28;20029;-67
2023/07/12 00:15:54;;;;;;;12.52;8.75;;;21.70;99.90;;;;;;5035784;28;20029;-67
2023/07/12 00:18:26;;;;;;;11.80;8.38;;;21.60;99.90;;;;;;5053608;28;20176;-67
2023/07/12 00:20:53;;;;;;;10.10;8.57;;;21.60;99.90;;;;;;5053594;28;20017;-67
2023/07/12 00:23:19;;;;;;;13.50;9.07;;;21.60;99.90;;;;;;5035826;28;20041;-67
2023/07/12 00:25:47;;;;;;;9.75;8.20;;;21.60;99.90;;;;;;5035681;28;20032;-67
2023/07/12 00:28:23;;;;;;;12.50;9.17;;;21.60;99.90;;;;;;5053281;28;20029;-67
2023/07/12 00:30:51;;;;;;;13.45;8.70;;;21.60;99.90;;;;;;5053586;28;20021;-67
2023/07/12 00:33:17;;;;;;;12.65;8.52;;;21.50;99.90;;;;;;5053471;28;20469;-67
2023/07/12 00:35:43;;;;;;;10.55;7.63;;;21.50;99.90;;;;;;5053497;28;20017;-67
2023/07/12 00:38:21;;;;;;;12.80;8.45;;;21.50;99.90;;;;;;5035508;28;20033;-67
2023/07/12 00:41:07;;;;;;;11.27;8.82;;;21.40;99.90;;;;;;5035343;28;20029;-67
2023/07/12 00:43:40;;;;;;;13.35;8.70;;;21.40;99.90;;;;;;5053443;28;20021;-67
2023/07/12 00:46:35;;;;;;;13.60;9.25;;;21.40;99.90;;;;;;5035404;28;20032;-67
2023/07/12 00:49:01;;;;;;;15.00;10.05;;;21.30;99.90;;;;;;5032026;28;20037;-70
2023/07/12 00:51:53;;;;;;;11.55;8.88;;;21.30;99.90;;;;;;5053189;28;20572;-67
2023/07/12 00:54:20;;;;;;;12.25;9.25;;;21.20;99.90;;;;;;5053315;28;20029;-66
2023/07/12 00:56:46;;;;;;;12.68;9.18;;;21.20;99.90;;;;;;5052964;28;20038;-67
2023/07/12 00:59:23;;;;;;;10.85;9.18;;;21.30;99.90;;;;;;5035389;28;20138;-66
2023/07/12 01:01:52;;;;;;;14.02;9.40;;;21.30;99.90;;;;;;5053192;28;20372;-68
2023/07/12 01:04:32;;;;;;;11.68;9.18;;;21.30;99.90;;;;;;5052857;28;20388;-68
2023/07/12 01:06:58;;;;;;;11.15;8.60;;;21.30;99.90;;;;;;5053222;28;20419;-68
2023/07/12 01:09:26;;;;;;;14.82;10.70;;;21.30;99.90;;;;;;5053150;28;20028;-68
2023/07/12 01:11:53;;;;;;;11.18;9.25;;;21.40;99.90;;;;;;5054701;28;20029;-68
2023/07/12 01:14:18;;;;;;;10.43;8.60;;;21.40;99.90;;;;;;5039041;28;20461;-68
2023/07/12 01:17:05;;;;;;;12.27;9.00;;;21.40;99.90;;;;;;5056506;28;20040;-68
2023/07/12 01:19:31;;;;;;;11.95;8.80;;;21.40;99.90;;;;;;5056595;28;20024;-68
2023/07/12 01:21:58;;;;;;;10.75;8.05;;;21.40;99.90;;;;;;5038448;28;20029;-68
2023/07/12 01:24:26;;;;;;;16.42;9.05;;;21.40;99.90;;;;;;5038994;28;20021;-68
2023/07/12 01:26:58;;;;;;;12.77;9.05;;;21.40;99.90;;;;;;5056828;28;20021;-68
2023/07/12 01:29:24;;;;;;;13.02;9.38;;;21.40;99.90;;;;;;5056620;28;20067;-68
2023/07/12 01:31:51;;;;;;;15.60;9.50;;;21.40;99.90;;;;;;5056240;28;20036;-68
2023/07/12 01:34:17;;;;;;;12.60;8.82;;;21.80;99.90;;;;;;5056433;28;20052;-68
2023/07/12 01:36:44;;;;;;;14.68;9.50;;;22.10;99.90;;;;;;5038556;28;20111;-68
2023/07/12 01:39:10;;;;;;;10.20;8.55;;;22.40;99.90;;;;;;5056090;28;20104;-68
2023/07/12 01:41:36;;;;;;;13.23;8.65;;;22.50;99.90;;;;;;5056336;28;20130;-68
2023/07/12 01:44:02;;;;;;;16.67;8.70;;;22.70;99.90;;;;;;5056534;28;20075;-68
2023/07/12 01:46:28;;;;;;;10.45;7.40;;;22.90;99.90;;;;;;5056201;28;20159;-68
2023/07/12 01:48:54;;;;;;;21.98;8.35;;;23.10;99.90;;;;;;5055881;28;20052;-68
2023/07/12 01:51:20;;;;;;;16.38;7.03;;;23.20;99.90;;;;;;5056075;28;20047;-68
2023/07/12 01:53:47;;;;;;;15.55;5.63;;;23.30;99.90;;;;;;5056111;28;20025;-68
2023/07/12 01:56:14;;;;;;;15.38;4.72;;;23.30;99.90;;;;;;5038172;28;20389;-68
2023/07/12 01:58:39;;;;;;;19.27;4.25;;;23.40;99.90;;;;;;5056260;28;20029;-68
2023/07/12 02:01:05;;;;;;;22.73;3.45;;;23.40;99.90;;;;;;5038487;28;20519;-68
2023/07/12 02:03:31;;;;;;;12.63;3.08;;;23.40;99.90;;;;;;5055995;28;20025;-68
2023/07/12 02:05:57;;;;;;;15.00;2.45;;;23.30;99.90;;;;;;5038345;28;20084;-68
2023/07/12 02:08:23;;;;;;;15.63;2.88;;;23.30;99.90;;;;;;5055791;28;20048;-67
2023/07/12 02:10:49;;;;;;;15.77;2.58;;;23.20;99.90;;;;;;5056037;28;20036;-67
2023/07/12 02:13:16;;;;;;;16.48;2.80;;;23.20;99.90;;;;;;5055318;28;20033;-67
2023/07/12 02:15:43;;;;;;;9.52;2.85;;;23.20;99.90;;;;;;5055678;28;20108;-67
2023/07/12 02:18:10;;;;;;;12.88;2.83;;;23.20;99.90;;;;;;5055749;28;20424;-68
2023/07/12 02:20:35;;;;;;;11.00;2.38;;;23.10;99.90;;;;;;5037665;28;20503;-67
2023/07/12 02:23:01;;;;;;;11.15;2.25;;;23.10;99.90;;;;;;5055062;28;20053;-67
2023/07/12 02:25:26;;;;;;;13.23;3.45;;;23.10;99.90;;;;;;5037790;28;20028;-68
2023/07/12 02:27:52;;;;;;;8.25;2.10;;;23.10;99.90;;;;;;5055404;28;20479;-68
2023/07/12 02:30:21;;;;;;;8.75;1.65;;;23.00;99.90;;;;;;5055526;28;20032;-68
2023/07/12 02:32:47;;;;;;;12.27;1.58;;;23.00;99.90;;;;;;5055621;28;20105;-68
2023/07/12 02:35:13;;;;;;;12.77;1.67;;;23.00;99.90;;;;;;5055319;28;20033;-68
2023/07/12 02:37:39;;;;;;;8.73;2.08;;;23.00;99.90;;;;;;5037370;28;20025;-68
2023/07/12 02:40:06;;;;;;;9.60;1.50;;;23.00;99.90;;;;;;5037355;28;20377;-68
2023/07/12 02:42:32;;;;;;;9.93;1.77;;;23.00;99.90;;;;;;5055177;28;20029;-68
2023/07/12 02:44:58;;;;;;;9.48;2.03;;;23.00;99.90;;;;;;5054816;28;20037;-68
2023/07/12 02:47:24;;;;;;;3.95;1.13;;;23.00;99.90;;;;;;5054765;28;20104;-67
2023/07/12 02:49:49;;;;;;;4.28;1.00;;;23.00;99.90;;;;;;5055023;28;20471;-68
2023/07/12 02:52:15;;;;;;;6.45;1.20;;;23.00;99.90;;;;;;5054907;28;20053;-68
2023/07/12 02:54:41;;;;;;;9.07;1.50;;;22.90;99.90;;;;;;5054795;28;20031;-68
2023/07/12 02:57:10;;;;;;;3.70;1.02;;;22.90;99.90;;;;;;5037257;28;20120;-68
2023/07/12 02:59:36;;;;;;;;;;;22.80;99.90;;;;;;5037480;28;20389;-68
2023/07/12 03:02:03;;;;;;;3.90;1.10;;;22.80;99.90;;;;;;5054795;28;19950;-68
2023/07/12 03:04:29;;;;;;;4.57;1.25;;;22.80;99.90;;;;;;5054701;28;20484;-67
2023/07/12 03:06:55;;;;;;;3.40;1.08;;;22.70;99.90;;;;;;5054789;28;20021;-68
2023/07/12 03:09:21;;;;;;;4.13;0.88;;;22.70;99.90;;;;;;5054871;28;20025;-68
2023/07/12 03:11:48;;;;;;;4.20;1.00;;;22.70;99.90;;;;;;5054614;28;20032;-68
2023/07/12 03:14:17;;;;;;;2.10;0.70;;;22.60;99.90;;;;;;5054264;28;20377;-67
2023/07/12 03:16:44;;;;;;;2.72;0.80;;;22.60;99.90;;;;;;5036652;28;20077;-68
2023/07/12 03:19:10;;;;;;;5.60;1.08;;;22.60;99.90;;;;;;5036658;28;20029;-68
2023/07/12 03:21:36;;;;;;;3.28;1.00;;;22.50;99.90;;;;;;5054455;28;20033;-68
2023/07/12 03:24:02;;;;;;;1.90;0.95;;;22.50;99.90;;;;;;5036509;28;20024;-68
2023/07/12 03:26:28;;;;;;;2.92;0.88;;;22.50;99.90;;;;;;5054358;28;20033;-68
2023/07/12 03:28:55;;;;;;;3.17;0.90;;;22.50;99.90;;;;;;5054412;28;20107;-68
2023/07/12 03:31:22;;;;;;;6.05;1.63;;;22.50;99.90;;;;;;5036838;28;20067;-68
2023/07/12 03:33:48;;;;;;;1.95;1.00;;;22.40;99.90;;;;;;5054015;28;20033;-68
2023/07/12 03:36:15;;;;;;;3.92;0.95;;;22.40;99.90;;;;;;5053688;28;20029;-68
2023/07/12 03:38:41;;;;;;;3.75;1.33;;;22.40;99.90;;;;;;5036376;28;20051;-68
2023/07/12 03:41:10;;;;;;;3.20;0.80;;;22.50;99.90;;;;;;5054330;28;20460;-68
2023/07/12 03:43:36;;;;;;;6.07;1.30;;;22.50;99.90;;;;;;5036448;28;20025;-68
2023/07/12 03:46:03;;;;;;;1.33;0.70;;;22.50;99.90;;;;;;5036651;28;20029;-68
2023/07/12 03:48:29;;;;;;;3.35;0.80;;;22.60;99.90;;;;;;5036143;28;20388;-68
2023/07/12 03:50:55;;;;;;;1.10;0.90;;;22.60;99.90;;;;;;5035791;28;20035;-68
2023/07/12 03:53:22;;;;;;;5.00;0.93;;;22.90;99.90;;;;;;5053906;28;20488;-68
2023/07/12 03:55:48;;;;;;;1.58;0.68;;;22.70;99.90;;;;;;5053884;28;20032;-68
2023/07/12 03:58:20;;;;;;;1.98;0.80;;;22.80;99.90;;;;;;5053836;28;20093;-76
2023/07/12 04:00:48;;;;;;;3.08;0.80;;;22.80;99.90;;;;;;5053633;28;20078;-68
2023/07/12 04:03:15;;;;;;;2.90;1.15;;;22.90;99.90;;;;;;5053782;28;20070;-68
2023/07/12 04:05:42;;;;;;;4.63;0.90;;;23.00;99.90;;;;;;5053683;28;20493;-68
2023/07/12 04:08:10;;;;;;;3.97;0.98;;;23.00;99.90;;;;;;5053893;28;20032;-68
2023/07/12 04:10:36;;;;;;;2.60;0.70;;;23.10;99.90;;;;;;5053642;28;20025;-68
2023/07/12 04:13:02;;;;;;;2.00;0.70;;;23.20;99.90;;;;;;5035649;28;20466;-68
2023/07/12 04:15:28;;;;;;;1.20;0.73;;;23.20;99.90;;;;;;5035732;28;20025;-68
2023/07/12 04:17:54;;;;;;;3.13;0.60;;;23.30;99.90;;;;;;5053338;28;20036;-68
2023/07/12 04:20:20;;;;;;;4.50;0.80;;;23.40;99.90;;;;;;5053409;28;20029;-68
2023/07/12 04:22:52;;;;;;;5.03;0.88;;;23.40;99.90;;;;;;5035747;28;20381;-68
2023/07/12 04:25:18;;;;;;;1.75;0.90;;;23.40;99.90;;;;;;5053641;28;20033;-68
2023/07/12 04:27:44;;;;;;;2.00;0.82;;;23.40;99.90;;;;;;5053691;28;20100;-68
2023/07/12 04:30:14;;;;;;;5.07;0.88;;;23.50;99.90;;;;;;5053985;28;20029;-68
2023/07/12 04:32:40;;;;;;;2.00;0.85;;;23.50;99.90;;;;;;5053653;28;20036;-68
2023/07/12 04:35:06;;;;;;;3.70;0.77;;;23.50;99.90;;;;;;5035601;28;20033;-68
2023/07/12 04:37:32;;;;;;;3.40;0.82;;;23.60;99.90;;;;;;5053358;28;20100;-68
2023/07/12 04:39:58;;;;;;;2.92;0.90;;;23.60;99.90;;;;;;5053281;28;20060;-68
2023/07/12 04:42:23;;;;;;;2.05;0.60;;;23.50;99.90;;;;;;5053593;28;20025;-58
2023/07/12 04:44:49;;;;;;;12.70;1.30;;;23.50;99.90;;;;;;5035474;28;20492;-58
2023/07/12 04:47:16;;;;;;;5.13;0.88;;;23.50;99.90;;;;;;5037827;28;20060;-64
2023/07/12 04:49:43;;;;;;;4.25;1.10;;;23.40;99.90;;;;;;5057170;28;20028;-58
2023/07/12 04:52:11;;;;;;;1.42;0.60;;;23.30;99.90;;;;;;5057307;28;20114;-57
2023/07/12 04:54:39;;;;;;;1.83;0.80;;;23.20;99.90;;;;;;5039223;28;20037;-58
2023/07/12 04:57:05;;;;;;;2.65;1.02;;;23.10;99.90;;;;;;5039236;28;20111;-57
2023/07/12 04:59:31;;;;;;;4.00;1.80;;;23.10;99.90;;;;;;5039144;28;20452;-58
2023/07/12 05:01:56;;;;;;;7.55;1.13;;;23.10;99.90;;;;;;5056697;28;20164;-57
2023/07/12 05:04:22;;;;;;;3.35;1.00;;;23.00;99.90;;;;;;5056918;28;20461;-57
2023/07/12 05:06:48;;;;;;;3.20;0.90;;;23.00;99.90;;;;;;5039348;28;20060;-58
2023/07/12 05:09:13;;;;;;;4.13;0.90;;;22.90;99.90;;;;;;5056868;28;20368;-57
2023/07/12 05:11:39;;;;;;;5.00;0.95;;;22.80;99.90;;;;;;5057134;28;20021;-58
2023/07/12 05:14:04;;;;;;;3.05;1.10;;;22.80;99.90;;;;;;5056764;28;20128;-58
2023/07/12 05:16:30;;;;;;;2.22;0.70;;;22.80;99.90;;;;;;5056465;28;20112;-58
2023/07/12 05:18:55;;;;;;;3.38;0.77;;;22.90;99.90;;;;;;5056652;28;20057;-73
2023/07/12 05:21:23;;;;;;;7.68;0.77;;;22.90;99.90;;;;;;5056444;28;20025;-70
2023/07/12 05:23:49;;;;;;;7.35;1.10;;;23.00;99.90;;;;;;5056867;28;20034;-69
2023/07/12 05:26:15;;;;;;;3.35;0.80;;;23.10;99.90;;;;;;5056381;28;20353;-69
2023/07/12 05:28:41;;;;;;;2.63;0.80;;;23.20;99.90;;;;;;5056376;28;20479;-71
2023/07/12 05:31:12;;;;;;;11.25;1.00;;;23.40;99.90;;;;;;5038165;28;20036;-59
2023/07/12 05:33:43;;;;;;;5.55;0.60;;;23.60;99.90;;;;;;5056724;28;20068;-58
2023/07/12 05:36:09;;;;;;;3.10;0.60;;;23.80;99.90;;;;;;5038657;28;20036;-57
2023/07/12 05:38:35;;;;;;;6.47;1.15;;;24.00;99.90;;;;;;5038533;28;20029;-59
2023/07/12 05:41:01;;;;;;;3.22;1.02;;;24.30;99.90;;;;;;5056381;28;20445;-57
2023/07/12 05:43:28;;;;;;;2.92;0.68;;;24.40;99.90;;;;;;5038397;28;20037;-57
2023/07/12 05:45:56;;;;;;;2.58;0.93;;;24.60;99.90;;;;;;5038918;28;20025;-56
2023/07/12 05:48:23;;;;;;;8.35;1.83;;;24.80;99.90;;;;;;5038599;28;20052;-57
2023/07/12 05:50:54;;;;;;;3.10;1.20;;;24.90;99.90;;;;;;5055727;28;20029;-57
2023/07/12 05:53:21;;;;;;;9.10;0.60;;;24.90;99.90;;;;;;5055921;28;20435;-56
2023/07/12 05:55:53;;;;;;;6.03;0.95;;;24.80;99.90;;;;;;5038043;28;20035;-56
2023/07/12 05:58:18;;;;;;;2.60;0.98;;;24.90;99.90;;;;;;5037285;28;20073;-56
2023/07/12 06:00:44;;;;;;;6.13;0.90;;;25.00;99.90;;;;;;5056260;28;20521;-59
2023/07/12 06:03:10;;;;;;;4.93;0.80;;;25.00;99.90;;;;;;5038126;28;20033;-58
2023/07/12 06:05:40;;;;;;;4.53;0.90;;;25.20;99.90;;;;;;5038393;28;20025;-57
2023/07/12 06:08:05;;;;;;;4.32;0.68;;;25.30;99.90;;;;;;5037924;28;20056;-56
2023/07/12 06:10:31;;;;;;;7.55;1.30;;;25.50;99.90;;;;;;5055785;28;20421;-55
2023/07/12 06:12:56;;;;;;;1.08;0.77;;;25.60;99.80;;;;;;5055365;28;20033;-55
2023/07/12 06:15:22;;;;;;;7.80;1.02;;;25.80;99.60;;;;;;5055685;28;20431;-56
2023/07/12 06:17:48;;;;;;;3.78;1.38;;;25.90;98.40;;;;;;5055350;28;20461;-55
2023/07/12 06:20:13;;;;;;;4.25;0.98;;;25.90;98.60;;;;;;5055580;28;20531;-55
2023/07/12 06:22:39;;;;;;;4.63;1.00;;;25.80;98.70;;;;;;5037603;28;20039;-55
2023/07/12 06:25:06;;;;;;;5.10;1.20;;;25.90;98.40;;;;;;5055785;28;20064;-56
2023/07/12 06:27:31;;;;;;;4.32;1.23;;;25.80;98.90;;;;;;5055474;28;20025;-56
2023/07/12 06:29:57;;;;;;;1.17;0.73;;;25.90;99.00;;;;;;5055366;28;20454;-56
2023/07/12 06:32:23;;;;;;;3.50;1.10;;;25.90;98.60;;;;;;5055267;28;20029;-56
2023/07/12 06:34:48;;;;;;;2.72;1.00;;;26.00;98.50;;;;;;5037539;28;20425;-56
2023/07/12 06:37:14;;;;;;;3.83;1.30;;;26.10;98.20;;;;;;5055901;28;20449;-55
2023/07/12 06:39:39;;;;;;;5.88;1.60;;;26.30;97.70;;;;;;5037349;28;20021;-55
2023/07/12 06:42:05;;;;;;;1.38;0.82;;;26.70;97.20;;;;;;5037365;28;20120;-56
2023/07/12 06:44:31;;;;;;;1.98;1.08;;;27.10;96.60;;;;;;5037425;28;20393;-59
2023/07/12 06:46:57;;;;;;;1.60;1.02;;;27.40;95.60;;;;;;5055161;28;20032;-59
2023/07/12 06:49:22;;;;;;;4.95;1.20;;;27.80;94.40;;;;;;5055209;28;20031;-58
2023/07/12 06:51:48;;;;;;;2.33;1.10;;;28.20;93.50;;;;;;5055293;28;20052;-58
2023/07/12 06:54:14;;;;;;;3.47;1.10;;;28.30;92.90;;;;;;5054521;28;20025;-58
2023/07/12 06:56:40;;;;;;;3.50;1.00;;;28.10;92.60;;;;;;5054450;28;20430;-56
2023/07/12 06:59:07;;;;;;;4.25;1.25;;;27.60;93.00;;;;;;5054523;28;20112;-55
2023/07/12 07:01:32;;;;;;;4.53;1.20;;;27.10;93.90;;;;;;5054828;28;20025;-57
2023/07/12 07:03:58;;;;;;;5.28;1.30;;;26.80;94.20;;;;;;5036892;28;20033;-58
2023/07/12 07:06:24;;;;;;;2.17;1.30;;;26.50;94.80;;;;;;5054788;28;20079;-59
2023/07/12 07:08:50;;;;;;;8.13;1.23;;;26.90;94.60;;;;;;5054471;28;20107;-59
2023/07/12 07:11:16;;;;;;;10.00;1.30;;;27.70;93.70;;;;;;5054325;28;20064;-59
2023/07/12 07:13:43;;;;;;;4.38;1.17;;;28.30;92.50;;;;;;5054364;28;20537;-59
2023/07/12 07:16:09;;;;;;;2.00;1.13;;;28.90;91.60;;;;;;5036590;28;20060;-60
2023/07/12 07:18:34;;;;;;;3.38;1.05;;;29.40;89.70;;;;;;5036800;28;20056;-59
2023/07/12 07:21:00;;;;;;;5.05;1.10;;;29.80;89.10;;;;;;5036466;28;20377;-59
2023/07/12 07:23:26;;;;;;;4.95;1.63;;;30.30;87.80;;;;;;5036375;28;20178;-73
2023/07/12 07:25:51;;;;;;;6.35;1.23;;;30.80;85.60;;;;;;5054272;28;20025;-72
2023/07/12 07:28:17;;;;;;;4.55;1.30;;;30.80;80.60;;;;;;5054034;28;20392;-76
2023/07/12 07:30:43;;;;;;;8.50;1.17;;;31.00;80.60;;;;;;5036406;28;20057;-76
2023/07/12 07:33:09;;;;;;;2.50;1.10;;;31.00;77.90;;;;;;5053863;28;20029;-82
2023/07/12 07:35:36;;;;;;;6.68;1.20;;;30.90;77.90;;;;;;5054606;28;20025;-82
2023/07/12 07:38:02;;;;;;;2.50;1.45;;;31.30;75.70;;;;;;5036312;28;20025;-87
2023/07/12 07:40:28;;;;;;;6.00;1.33;;;31.50;76.00;;;;;;5054089;28;20051;-83
2023/07/12 07:42:55;;;;;;;4.18;1.38;;;31.40;74.10;;;;;;5053821;28;20035;-84
2023/07/12 07:45:20;;;;;;;6.65;1.70;;;31.50;73.70;;;;;;5054162;28;20021;-86
2023/07/12 07:47:46;;;;;;;3.40;1.20;;;31.90;73.20;;;;;;5054338;28;20021;-86
2023/07/12 07:50:11;;;;;;;4.10;1.08;;;32.30;70.80;;;;;;5054271;28;20029;-83
2023/07/12 07:52:37;;;;;;;4.93;1.30;;;32.90;68.80;;;;;;5053476;28;20108;-84
2023/07/12 07:55:05;;;;;;;6.63;1.52;;;33.00;66.90;;;;;;5036125;28;20028;-83
2023/07/12 07:57:31;;;;;;;4.97;1.05;;;32.90;67.40;;;;;;5036282;28;20052;-83
2023/07/12 07:59:59;;;;;;;5.47;1.10;;;33.00;67.00;;;;;;5054322;28;20440;-85
2023/07/12 08:02:24;;;;;;;6.00;1.13;;;33.30;66.50;;;;;;5054166;28;20025;-84
2023/07/12 08:04:50;;;;;;;7.53;1.73;;;33.40;64.80;;;;;;5054155;28;20409;-84
2023/07/12 08:07:15;;;;;;;2.67;1.05;;;33.30;65.50;;;;;;5054147;28;20033;-84
2023/07/12 08:09:41;;;;;;;3.92;1.30;;;33.80;63.70;;;;;;5053796;28;20017;-85
2023/07/12 08:12:07;;;;;;;2.38;1.17;;;34.20;62.80;;;;;;5035998;28;20384;-85
2023/07/12 08:14:33;;;;;;;3.40;1.38;;;34.70;62.50;;;;;;5035836;28;20461;-84
2023/07/12 08:16:58;;;;;;;2.75;1.20;;;35.30;59.60;;;;;;5054169;28;20040;-84
2023/07/12 08:19:24;;;;;;;6.68;1.20;;;35.20;58.90;;;;;;5035827;28;20025;-83
2023/07/12 08:21:50;;;;;;;4.53;1.20;;;35.00;58.90;;;;;;5040158;28;20032;-83
2023/07/12 08:24:16;;;;;;;5.78;1.60;;;35.50;57.90;;;;;;5042257;28;20028;-83
2023/07/12 08:26:42;;;;;;;4.22;1.67;;;35.40;56.80;;;;;;5060222;28;20355;-83
2023/07/12 08:29:08;;;;;;;3.22;1.10;;;35.50;57.10;;;;;;5042794;28;20028;-83
2023/07/12 08:31:33;;;;;;;4.50;1.40;;;35.40;57.40;;;;;;5060224;28;20354;-83
2023/07/12 08:33:59;;;;;;;4.53;1.42;;;35.00;56.70;;;;;;5060025;28;20120;-83
2023/07/12 08:36:25;;;;;;;3.70;1.33;;;35.20;57.10;;;;;;5042348;28;20025;-83
2023/07/12 08:38:51;;;;;;;2.60;1.30;;;34.60;56.50;;;;;;5042473;28;20021;-83
2023/07/12 08:41:20;;;;;;;3.50;0.95;;;34.80;56.60;;;;;;5041883;28;20031;-83
2023/07/12 08:43:46;;;;;;;2.80;1.00;;;34.70;56.20;;;;;;5042130;28;20033;-83
2023/07/12 08:46:24;;;;;;;4.53;2.05;;;35.10;56.00;;;;;;5042152;28;20029;-82
2023/07/12 08:48:58;;;;;;;7.40;1.40;;;35.70;54.50;;;;;;5059978;28;20035;-83
2023/07/12 08:51:28;;;;;;;5.07;1.30;;;35.80;54.20;;;;;;5059897;28;20048;-82
2023/07/12 08:53:55;;;;;;;3.47;1.40;;;35.80;54.30;;;;;;5042200;28;20131;-83
2023/07/12 08:56:21;;;;;;;2.78;1.25;;;35.20;54.90;;;;;;5060156;28;20029;-83
2023/07/12 08:58:50;;;;;;;6.30;1.70;;;34.90;56.70;;;;;;5059944;28;20496;-83
2023/07/12 09:01:40;;;;;;;5.10;1.30;;;34.20;56.10;;;;;;5060091;28;20082;-84
2023/07/12 09:04:23;;;;;;;4.22;1.38;;;33.80;58.10;;;;;;5059937;28;20036;-83
2023/07/12 09:06:54;;;;;;;3.95;1.58;;;33.70;59.20;;;;;;5041668;28;20025;-83
2023/07/12 09:09:20;;;;;;;4.65;1.40;;;34.10;58.90;;;;;;5059978;28;20060;-83
2023/07/12 09:11:46;;;;;;;4.70;1.58;;;34.50;58.80;;;;;;5059937;28;20033;-83
2023/07/12 09:14:17;;;;;;;10.55;1.70;;;34.50;58.60;;;;;;5059795;28;20029;-83
2023/07/12 09:16:48;;;;;;;7.28;1.30;;;34.80;59.50;;;;;;5059931;28;20469;-83
2023/07/12 09:19:27;;;;;;;5.65;1.30;;;35.40;57.80;;;;;;5060007;28;20025;-83
2023/07/12 09:21:58;;;;;;;5.45;1.33;;;35.30;56.60;;;;;;5059723;28;20104;-83
2023/07/12 09:24:27;;;;;;;5.82;1.17;;;34.70;57.30;;;;;;5041758;28;20029;-82
2023/07/12 09:27:04;;;;;;;6.97;1.35;;;34.40;58.10;;;;;;5059535;28;20060;-84
2023/07/12 09:29:33;;;;;;;2.90;1.20;;;34.50;58.00;;;;;;5041934;28;20361;-83
2023/07/12 09:32:02;;;;;;;;;;;34.20;56.20;;;;;;5059482;28;20025;-83
2023/07/12 09:34:39;;;;;;;3.85;1.30;;;34.70;56.50;;;;;;5056448;28;19970;-83
2023/07/12 09:37:16;;;;;;;5.50;1.23;;;35.60;55.60;;;;;;5056541;28;20025;-83
2023/07/12 09:39:58;;;;;;;5.93;1.40;;;36.40;53.50;;;;;;5056575;28;20078;-82
2023/07/12 09:42:26;;;;;;;6.00;1.15;;;36.60;52.90;;;;;;5038397;28;20280;-83
2023/07/12 09:44:52;;;;;;;2.73;1.13;;;37.10;52.90;;;;;;5056352;28;20166;-84
2023/07/12 09:47:34;;;;;;;3.35;1.00;;;37.10;51.70;;;;;;5056206;28;20060;-83
2023/07/12 09:50:06;;;;;;;4.63;1.20;;;37.00;51.20;;;;;;5056138;28;20021;-83
2023/07/12 09:52:40;;;;;;;3.25;1.25;;;36.80;50.40;;;;;;5055895;28;20045;-83
2023/07/12 09:55:16;;;;;;;3.40;1.42;;;37.10;50.60;;;;;;5038091;28;20086;-84
2023/07/12 09:58:19;;;;;;;4.50;1.15;;;37.50;49.70;;;;;;5056085;28;20021;-83
2023/07/12 10:00:56;;;;;;;3.22;0.95;;;37.60;49.20;;;;;;5038159;28;20048;-82
2023/07/12 10:03:37;;;;;;;5.57;0.98;;;37.70;48.80;;;;;;5056035;28;20028;-83
2023/07/12 10:06:30;;;;;;;6.25;1.40;;;37.70;49.00;;;;;;5038779;28;20024;-84
2023/07/12 10:09:16;;;;;;;2.53;1.00;;;38.00;48.90;;;;;;5056330;28;20404;-83
2023/07/12 10:11:59;;;;;;;1.30;0.90;;;38.50;47.90;;;;;;5038088;28;20436;-83
2023/07/12 10:14:32;;;;;;;1.67;0.90;;;37.60;44.90;;;;;;5038537;28;20195;-82
2023/07/12 10:16:58;;;;;;;2.53;0.93;;;37.00;45.90;;;;;;5038181;28;20033;-83
2023/07/12 10:19:36;;;;;;;1.90;1.10;;;37.50;45.30;;;;;;5038250;28;20029;-83
2023/07/12 10:22:09;;;;;;;1.50;1.02;;;38.20;45.00;;;;;;5055290;28;20036;-83
2023/07/12 10:24:40;;;;;;;1.00;0.88;;;38.20;43.40;;;;;;5037814;28;20075;-82
2023/07/12 10:27:23;;;;;;;1.80;1.10;;;37.50;43.20;;;;;;5055167;28;20033;-82
2023/07/12 10:30:01;;;;;;;3.17;0.80;;;37.30;44.40;;;;;;5055507;28;20061;-83
2023/07/12 10:32:33;;;;;;;1.63;1.08;;;37.20;44.30;;;;;;5055390;28;20032;-82
2023/07/12 10:35:22;;;;;;;2.67;1.00;;;37.40;44.90;;;;;;5055379;28;20040;-83
2023/07/12 10:37:58;;;;;;;3.88;1.27;;;37.60;44.00;;;;;;5037477;28;20025;-82
2023/07/12 10:40:29;;;;;;;1.63;0.90;;;37.80;43.80;;;;;;5055562;28;20025;-83
2023/07/12 10:42:59;;;;;;;4.72;1.02;;;37.90;43.30;;;;;;5037359;28;20085;-83
2023/07/12 10:45:28;;;;;;;2.55;0.90;;;37.90;42.90;;;;;;5036732;28;20025;-83
2023/07/12 10:47:57;;;;;;;2.15;0.70;;;37.60;43.30;;;;;;5036943;28;20041;-83
2023/07/12 10:50:35;;;;;;;1.20;0.90;;;37.60;44.00;;;;;;5055365;28;20036;-82
2023/07/12 10:53:22;;;;;;;2.35;0.75;;;37.40;43.70;;;;;;5070875;28;20057;-82
2023/07/12 10:56:10;;;;;;;5.85;1.17;;;37.40;44.90;;;;;;5074933;28;20524;-83
2023/07/12 10:58:48;;;;;;;1.27;0.98;;;37.40;45.00;;;;;;5074875;28;20468;-82
2023/07/12 11:01:41;;;;;;;2.08;1.08;;;37.20;43.00;;;;;;5075245;28;20031;-82
2023/07/12 11:04:10;;;;;;;3.35;1.10;;;37.10;43.70;;;;;;5074777;28;20039;-83
2023/07/12 11:06:52;;;;;;;1.65;0.98;;;37.50;43.90;;;;;;5074862;28;20020;-83
2023/07/12 11:09:18;;;;;;;4.30;0.80;;;37.20;43.20;;;;;;5073453;28;20025;-83
2023/07/12 11:11:55;;;;;;;5.80;1.08;;;36.80;43.80;;;;;;5074888;28;20028;-82
2023/07/12 11:14:42;;;;;;;3.65;1.40;;;36.80;43.80;;;;;;5074630;28;20074;-82
2023/07/12 11:17:08;;;;;;;2.75;0.93;;;37.50;43.90;;;;;;5074590;28;20025;-84
2023/07/12 11:19:40;;;;;;;2.05;0.90;;;37.90;43.80;;;;;;5073179;28;20495;-83
2023/07/12 11:22:43;;;;;;;3.58;1.25;;;37.90;43.20;;;;;;5074124;28;20468;-83
2023/07/12 11:25:30;;;;;;;4.05;1.48;;;37.80;42.70;;;;;;5074642;28;20028;-84
2023/07/12 11:28:24;;;;;;;1.65;1.00;;;37.20;44.10;;;;;;5073165;28;20024;-84
2023/07/12 11:31:13;;;;;;;3.65;1.13;;;37.50;43.60;;;;;;5072249;28;20032;-84
2023/07/12 11:33:40;;;;;;;2.40;1.00;;;37.90;43.00;;;;;;5063150;28;20051;-84
2023/07/12 11:36:19;;;;;;;3.83;1.17;;;37.80;42.70;;;;;;5074259;28;20024;-83
2023/07/12 11:38:45;;;;;;;1.45;1.05;;;36.50;43.20;;;;;;5073029;28;20046;-83
2023/07/12 11:41:18;;;;;;;2.50;1.08;;;36.00;45.10;;;;;;5073138;28;20052;-82
2023/07/12 11:43:44;;;;;;;2.85;1.15;;;36.20;45.40;;;;;;5074308;28;20028;-83
2023/07/12 11:46:22;;;;;;;2.97;1.67;;;36.40;44.30;;;;;;5074031;28;20082;-82
2023/07/12 11:48:51;;;;;;;2.38;1.30;;;36.40;45.00;;;;;;5073080;28;20021;-82
2023/07/12 11:51:34;;;;;;;;;;;35.90;45.20;;;;;;5069987;28;20083;-82
2023/07/12 11:54:00;;;;;;;2.88;1.65;;;35.70;46.30;;;;;;5036034;28;19912;-82
2023/07/12 11:56:26;;;;;;;1.45;1.15;;;36.30;45.80;;;;;;5035284;28;20025;-82
2023/07/12 11:58:53;;;;;;;6.57;1.50;;;36.40;45.70;;;;;;5054169;28;20017;-83
2023/07/12 12:01:21;;;;;;;2.30;1.27;;;36.70;45.00;;;;;;5036242;28;20112;-82
2023/07/12 12:03:52;;;;;;;4.45;1.50;;;36.80;45.30;;;;;;5035886;28;20468;-82
2023/07/12 12:06:20;;;;;;;2.25;1.15;;;37.50;45.20;;;;;;5053687;28;20115;-82
2023/07/12 12:08:52;;;;;;;1.90;1.30;;;37.70;44.40;;;;;;5053808;28;20453;-82
2023/07/12 12:11:17;;;;;;;4.95;1.23;;;37.60;44.30;;;;;;5053499;28;20468;-82
2023/07/12 12:13:51;;;;;;;3.33;1.27;;;38.10;44.30;;;;;;5035630;28;20033;-82
2023/07/12 12:16:21;;;;;;;3.28;1.30;;;38.00;43.50;;;;;;5036274;28;20022;-82
2023/07/12 12:19:15;;;;;;;2.72;1.50;;;37.50;44.10;;;;;;5053848;28;20100;-83
2023/07/12 12:21:49;;;;;;;2.72;1.20;;;37.40;43.60;;;;;;5044583;28;20484;-82
2023/07/12 12:24:18;;;;;;;6.53;1.80;;;36.50;44.00;;;;;;5035662;28;20052;-83
2023/07/12 12:26:45;;;;;;;3.72;1.20;;;36.30;45.30;;;;;;5035862;28;20504;-82
2023/07/12 12:29:18;;;;;;;2.50;1.40;;;36.30;45.00;;;;;;5035372;28;20381;-82
2023/07/12 12:31:57;;;;;;;4.07;1.10;;;36.20;44.60;;;;;;5053841;28;20107;-82
2023/07/12 12:34:27;;;;;;;5.65;1.50;;;36.20;44.30;;;;;;5053547;28;20033;-81
2023/07/12 12:37:05;;;;;;;5.93;1.42;;;36.00;45.10;;;;;;5035655;28;20029;-83
2023/07/12 12:39:31;;;;;;;4.78;1.38;;;36.30;45.10;;;;;;5053779;28;20166;-82
2023/07/12 12:41:59;;;;;;;3.20;1.30;;;36.60;44.50;;;;;;5035554;28;20490;-83
2023/07/12 12:44:30;;;;;;;3.60;1.40;;;36.50;44.10;;;;;;5053160;28;20025;-83
2023/07/12 12:47:00;;;;;;;4.55;1.55;;;36.40;43.80;;;;;;5035385;28;20579;-83
2023/07/12 12:49:28;;;;;;;1.45;1.10;;;36.60;44.30;;;;;;5052996;28;20025;-84
2023/07/12 12:51:56;;;;;;;5.72;1.48;;;36.80;44.20;;;;;;5053490;28;20056;-83
2023/07/12 12:54:23;;;;;;;6.00;1.67;;;36.80;45.00;;;;;;5053204;28;20025;-83
2023/07/12 12:56:50;;;;;;;5.05;1.80;;;37.30;44.30;;;;;;5053343;28;20096;-83